sensor_id;sensor_type;location;lat;lon;timestamp;pressure;altitude;pressure_sealevel;temperature;humidity
56719;BME280;42597;40.636;0.278;2023-03-23T00:02:25;97122.66;;;18.45;58.57
56719;BME280;42597;40.636;0.278;2023-03-23T00:04:52;97124.25;;;18.46;57.87
56719;BME280;42597;40.636;0.278;2023-03-23T00:07:20;97133.22;;;18.46;57.71
56719;BME280;42597;40.636;0.278;2023-03-23T00:09:49;97132.25;;;17.80;58.48
56719;BME280;42597;40.636;0.278;2023-03-23T00:12:26;97146.97;;;18.32;57.97
56719;BME280;42597;40.636;0.278;2023-03-23T00:15:06;97135.97;;;18.43;57.80
56719;BME280;42597;40.636;0.278;2023-03-23T00:17:32;97130.50;;;18.46;57.57
56719;BME280;42597;40.636;0.278;2023-03-23T00:19:58;97127.34;;;18.48;57.30
56719;BME280;42597;40.636;0.278;2023-03-23T00:22:27;97130.50;;;18.43;57.22
56719;BME280;42597;40.636;0.278;2023-03-23T00:24:54;97123.44;;;18.49;56.84
56719;BME280;42597;40.636;0.278;2023-03-23T00:27:22;97126.56;;;18.51;56.83
56719;BME280;42597;40.636;0.278;2023-03-23T00:29:51;97134.78;;;18.44;56.59
56719;BME280;42597;40.636;0.278;2023-03-23T00:32:22;97144.72;;;16.95;59.57
56719;BME280;42597;40.636;0.278;2023-03-23T00:34:53;97147.09;;;17.89;58.45
56719;BME280;42597;40.636;0.278;2023-03-23T00:37:19;97148.94;;;18.28;56.99
56719;BME280;42597;40.636;0.278;2023-03-23T00:39:45;97150.97;;;17.99;57.10
56719;BME280;42597;40.636;0.278;2023-03-23T00:42:13;97134.22;;;17.86;58.73
56719;BME280;42597;40.636;0.278;2023-03-23T00:44:40;97140.00;;;16.77;58.56
56719;BME280;42597;40.636;0.278;2023-03-23T00:47:06;97139.66;;;16.90;61.08
56719;BME280;42597;40.636;0.278;2023-03-23T00:49:34;97126.50;;;16.08;62.63
56719;BME280;42597;40.636;0.278;2023-03-23T00:52:01;97126.06;;;15.44;67.73
56719;BME280;42597;40.636;0.278;2023-03-23T00:54:27;97130.69;;;17.28;62.53
56719;BME280;42597;40.636;0.278;2023-03-23T00:56:54;97127.97;;;17.79;59.87
56719;BME280;42597;40.636;0.278;2023-03-23T00:59:20;97131.84;;;17.85;59.33
56719;BME280;42597;40.636;0.278;2023-03-23T01:01:46;97123.63;;;17.99;58.74
56719;BME280;42597;40.636;0.278;2023-03-23T01:04:13;97128.25;;;18.20;57.70
56719;BME280;42597;40.636;0.278;2023-03-23T01:06:42;97133.81;;;17.81;59.00
56719;BME280;42597;40.636;0.278;2023-03-23T01:09:13;97116.19;;;18.10;58.03
56719;BME280;42597;40.636;0.278;2023-03-23T01:11:45;97117.81;;;17.61;60.22
56719;BME280;42597;40.636;0.278;2023-03-23T01:14:12;97107.56;;;18.12;58.07
56719;BME280;42597;40.636;0.278;2023-03-23T01:16:38;97109.09;;;18.23;57.37
56719;BME280;42597;40.636;0.278;2023-03-23T01:19:04;97103.66;;;18.16;57.82
56719;BME280;42597;40.636;0.278;2023-03-23T01:21:30;97115.78;;;18.08;58.21
56719;BME280;42597;40.636;0.278;2023-03-23T01:23:56;97119.28;;;18.19;57.83
56719;BME280;42597;40.636;0.278;2023-03-23T01:26:24;97119.69;;;18.07;58.34
56719;BME280;42597;40.636;0.278;2023-03-23T01:28:50;97118.22;;;17.06;63.67
56719;BME280;42597;40.636;0.278;2023-03-23T01:31:19;97114.69;;;17.52;61.26
56719;BME280;42597;40.636;0.278;2023-03-23T01:33:46;97113.00;;;16.51;67.93
56719;BME280;42597;40.636;0.278;2023-03-23T01:36:17;97113.13;;;16.94;65.81
56719;BME280;42597;40.636;0.278;2023-03-23T01:38:45;97099.03;;;17.88;60.66
56719;BME280;42597;40.636;0.278;2023-03-23T01:41:12;97091.56;;;18.17;58.97
56719;BME280;42597;40.636;0.278;2023-03-23T01:43:54;97083.69;;;18.27;58.26
56719;BME280;42597;40.636;0.278;2023-03-23T01:46:20;97085.25;;;18.28;58.14
56719;BME280;42597;40.636;0.278;2023-03-23T01:48:48;97084.47;;;18.31;58.08
56719;BME280;42597;40.636;0.278;2023-03-23T01:51:17;97084.47;;;18.31;58.06
56719;BME280;42597;40.636;0.278;2023-03-23T01:53:46;97089.13;;;18.34;57.88
56719;BME280;42597;40.636;0.278;2023-03-23T01:56:12;97085.38;;;16.70;66.54
56719;BME280;42597;40.636;0.278;2023-03-23T01:58:40;97095.59;;;16.95;65.51
56719;BME280;42597;40.636;0.278;2023-03-23T02:01:10;97100.38;;;13.36;87.73
56719;BME280;42597;40.636;0.278;2023-03-23T02:03:39;97090.69;;;15.51;76.53
56719;BME280;42597;40.636;0.278;2023-03-23T02:06:07;97094.34;;;14.06;86.71
56719;BME280;42597;40.636;0.278;2023-03-23T02:08:33;97081.38;;;16.21;72.43
56719;BME280;42597;40.636;0.278;2023-03-23T02:11:00;97087.00;;;17.43;64.98
56719;BME280;42597;40.636;0.278;2023-03-23T02:13:27;97089.38;;;17.37;65.35
56719;BME280;42597;40.636;0.278;2023-03-23T02:18:54;97083.09;;;17.51;63.84
56719;BME280;42597;40.636;0.278;2023-03-23T02:21:48;97077.63;;;17.40;64.12
56719;BME280;42597;40.636;0.278;2023-03-23T02:36:23;97055.63;;;18.08;60.51
56719;BME280;42597;40.636;0.278;2023-03-23T02:41:54;97053.28;;;18.17;60.25
56719;BME280;42597;40.636;0.278;2023-03-23T02:44:23;97057.56;;;18.18;60.02
56719;BME280;42597;40.636;0.278;2023-03-23T02:46:51;97062.72;;;17.91;62.48
56719;BME280;42597;40.636;0.278;2023-03-23T02:49:19;97066.56;;;18.08;60.71
56719;BME280;42597;40.636;0.278;2023-03-23T02:51:46;97063.38;;;18.20;60.30
56719;BME280;42597;40.636;0.278;2023-03-23T02:54:15;97061.06;;;18.22;60.23
56719;BME280;42597;40.636;0.278;2023-03-23T02:56:43;97063.38;;;18.20;60.58
56719;BME280;42597;40.636;0.278;2023-03-23T02:59:08;97054.25;;;16.86;67.48
56719;BME280;42597;40.636;0.278;2023-03-23T03:04:28;97048.69;;;17.86;62.20
56719;BME280;42597;40.636;0.278;2023-03-23T03:09:59;97047.00;;;18.17;61.17
56719;BME280;42597;40.636;0.278;2023-03-23T03:15:59;97054.72;;;18.33;61.15
56719;BME280;42597;40.636;0.278;2023-03-23T03:18:42;97053.97;;;18.29;60.60
56719;BME280;42597;40.636;0.278;2023-03-23T03:21:12;97044.69;;;18.12;60.72
56719;BME280;42597;40.636;0.278;2023-03-23T03:23:41;97052.47;;;18.17;61.03
56719;BME280;42597;40.636;0.278;2023-03-23T03:26:10;97043.06;;;18.25;60.60
56719;BME280;42597;40.636;0.278;2023-03-23T03:28:37;97035.22;;;18.31;60.67
56719;BME280;42597;40.636;0.278;2023-03-23T03:31:04;97041.47;;;18.28;60.22
56719;BME280;42597;40.636;0.278;2023-03-23T03:33:31;97035.22;;;18.31;59.93
56719;BME280;42597;40.636;0.278;2023-03-23T03:36:04;97036.00;;;18.31;60.12
56719;BME280;42597;40.636;0.278;2023-03-23T03:38:45;97036.13;;;18.10;60.81
56719;BME280;42597;40.636;0.278;2023-03-23T03:41:11;97032.63;;;17.98;61.28
56719;BME280;42597;40.636;0.278;2023-03-23T03:43:36;97032.59;;;18.09;60.63
56719;BME280;42597;40.636;0.278;2023-03-23T03:46:02;97031.41;;;18.10;60.25
56719;BME280;42597;40.636;0.278;2023-03-23T03:48:28;97035.25;;;18.27;59.80
56719;BME280;42597;40.636;0.278;2023-03-23T03:50:53;97025.06;;;18.28;59.72
56719;BME280;42597;40.636;0.278;2023-03-23T03:53:25;97012.59;;;18.27;59.83
56719;BME280;42597;40.636;0.278;2023-03-23T03:55:51;97015.31;;;18.27;59.84
56719;BME280;42597;40.636;0.278;2023-03-23T03:58:23;97012.97;;;18.25;59.19
56719;BME280;42597;40.636;0.278;2023-03-23T04:00:50;97020.06;;;18.15;60.05
56719;BME280;42597;40.636;0.278;2023-03-23T04:03:16;97019.78;;;17.92;60.80
56719;BME280;42597;40.636;0.278;2023-03-23T04:05:42;97036.25;;;17.60;61.10
56719;BME280;42597;40.636;0.278;2023-03-23T04:08:10;97033.88;;;15.46;71.08
56719;BME280;42597;40.636;0.278;2023-03-23T04:10:36;97021.47;;;17.32;64.59
56719;BME280;42597;40.636;0.278;2023-03-23T04:13:02;97024.13;;;17.82;61.78
56719;BME280;42597;40.636;0.278;2023-03-23T04:15:30;97029.09;;;18.05;60.30
56719;BME280;42597;40.636;0.278;2023-03-23T04:17:56;97036.88;;;18.17;59.76
56719;BME280;42597;40.636;0.278;2023-03-23T04:20:22;97034.50;;;18.19;59.37
56719;BME280;42597;40.636;0.278;2023-03-23T04:22:48;97034.47;;;18.27;58.72
56719;BME280;42597;40.636;0.278;2023-03-23T04:25:17;97032.91;;;18.29;58.39
56719;BME280;42597;40.636;0.278;2023-03-23T04:27:46;97024.31;;;18.23;58.60
56719;BME280;42597;40.636;0.278;2023-03-23T04:30:18;97023.53;;;18.27;58.50
56719;BME280;42597;40.636;0.278;2023-03-23T04:32:45;97028.97;;;18.34;58.26
56719;BME280;42597;40.636;0.278;2023-03-23T04:35:13;97029.72;;;18.38;58.00
56719;BME280;42597;40.636;0.278;2023-03-23T04:37:39;97032.47;;;18.34;58.11
56719;BME280;42597;40.636;0.278;2023-03-23T04:40:07;97035.63;;;18.29;57.96
56719;BME280;42597;40.636;0.278;2023-03-23T04:42:37;97043.44;;;18.31;57.98
56719;BME280;42597;40.636;0.278;2023-03-23T04:45:04;97054.78;;;18.25;58.08
56719;BME280;42597;40.636;0.278;2023-03-23T04:47:35;97052.41;;;18.35;57.98
56719;BME280;42597;40.636;0.278;2023-03-23T04:50:14;97043.84;;;18.29;57.80
56719;BME280;42597;40.636;0.278;2023-03-23T04:52:39;97046.50;;;18.36;57.42
56719;BME280;42597;40.636;0.278;2023-03-23T04:55:10;97050.06;;;18.33;57.65
56719;BME280;42597;40.636;0.278;2023-03-23T04:57:37;97057.88;;;18.35;57.17
56719;BME280;42597;40.636;0.278;2023-03-23T05:00:03;97047.75;;;18.24;57.42
56719;BME280;42597;40.636;0.278;2023-03-23T05:02:37;97049.31;;;18.29;57.22
56719;BME280;42597;40.636;0.278;2023-03-23T05:05:06;97047.75;;;18.21;57.36
56719;BME280;42597;40.636;0.278;2023-03-23T05:07:31;97054.81;;;18.18;57.69
56719;BME280;42597;40.636;0.278;2023-03-23T05:09:57;97055.59;;;18.22;57.45
56719;BME280;42597;40.636;0.278;2023-03-23T05:12:23;97048.16;;;18.19;57.46
56719;BME280;42597;40.636;0.278;2023-03-23T05:14:48;97047.41;;;18.15;57.61
56719;BME280;42597;40.636;0.278;2023-03-23T05:17:14;97039.19;;;18.15;57.27
56719;BME280;42597;40.636;0.278;2023-03-23T05:19:42;97040.00;;;18.09;57.42
56719;BME280;42597;40.636;0.278;2023-03-23T05:22:10;97036.13;;;18.10;57.46
56719;BME280;42597;40.636;0.278;2023-03-23T05:24:37;97040.75;;;18.13;57.43
56719;BME280;42597;40.636;0.278;2023-03-23T05:27:03;97023.59;;;18.09;57.48
56719;BME280;42597;40.636;0.278;2023-03-23T05:29:29;97034.50;;;18.16;56.98
56719;BME280;42597;40.636;0.278;2023-03-23T05:31:56;97022.75;;;18.22;56.51
56719;BME280;42597;40.636;0.278;2023-03-23T05:34:26;97029.81;;;18.13;56.96
56719;BME280;42597;40.636;0.278;2023-03-23T05:36:52;97030.22;;;18.15;56.83
56719;BME280;42597;40.636;0.278;2023-03-23T05:39:18;97027.91;;;18.06;56.95
56719;BME280;42597;40.636;0.278;2023-03-23T05:41:44;97026.75;;;18.07;56.88
56719;BME280;42597;40.636;0.278;2023-03-23T05:44:09;97025.16;;;18.13;56.82
56719;BME280;42597;40.636;0.278;2023-03-23T05:46:35;97031.41;;;18.10;56.91
56719;BME280;42597;40.636;0.278;2023-03-23T05:49:01;97031.41;;;18.10;56.88
56719;BME280;42597;40.636;0.278;2023-03-23T05:51:27;97039.63;;;18.07;56.93
56719;BME280;42597;40.636;0.278;2023-03-23T05:53:52;97036.94;;;17.99;57.12
56719;BME280;42597;40.636;0.278;2023-03-23T05:56:18;97034.19;;;18.03;56.54
56719;BME280;42597;40.636;0.278;2023-03-23T05:58:44;97031.84;;;18.05;56.36
56719;BME280;42597;40.636;0.278;2023-03-23T06:01:10;97045.56;;;15.50;61.50
56719;BME280;42597;40.636;0.278;2023-03-23T06:03:37;97033.53;;;16.63;63.74
56719;BME280;42597;40.636;0.278;2023-03-23T06:06:03;97037.72;;;17.93;57.52
56719;BME280;42597;40.636;0.278;2023-03-23T06:08:30;97033.03;;;17.97;56.88
56719;BME280;42597;40.636;0.278;2023-03-23T06:10:56;97034.66;;;17.80;57.77
56719;BME280;42597;40.636;0.278;2023-03-23T06:13:22;97032.31;;;17.86;56.88
56719;BME280;42597;40.636;0.278;2023-03-23T06:15:48;97030.44;;;17.40;58.09
56719;BME280;42597;40.636;0.278;2023-03-23T06:18:14;97038.53;;;17.90;57.26
56719;BME280;42597;40.636;0.278;2023-03-23T06:20:40;97038.50;;;17.97;56.62
56719;BME280;42597;40.636;0.278;2023-03-23T06:23:07;97039.88;;;15.69;57.34
56719;BME280;42597;40.636;0.278;2023-03-23T06:25:34;97052.69;;;14.28;64.46
56719;BME280;42597;40.636;0.278;2023-03-23T06:28:00;97037.50;;;14.61;65.82
56719;BME280;42597;40.636;0.278;2023-03-23T06:30:26;97040.56;;;17.39;59.41
56719;BME280;42597;40.636;0.278;2023-03-23T06:32:53;97030.00;;;17.77;56.84
56719;BME280;42597;40.636;0.278;2023-03-23T06:35:18;97031.09;;;17.94;56.71
56719;BME280;42597;40.636;0.278;2023-03-23T06:37:44;97040.03;;;18.05;56.51
56719;BME280;42597;40.636;0.278;2023-03-23T06:40:10;97046.31;;;18.02;56.31
56719;BME280;42597;40.636;0.278;2023-03-23T06:42:36;97058.78;;;18.03;56.42
56719;BME280;42597;40.636;0.278;2023-03-23T06:45:03;97057.59;;;18.08;56.09
56719;BME280;42597;40.636;0.278;2023-03-23T06:47:29;97058.75;;;18.10;56.11
56719;BME280;42597;40.636;0.278;2023-03-23T06:49:58;97064.59;;;18.12;55.96
56719;BME280;42597;40.636;0.278;2023-03-23T06:52:25;97069.81;;;17.82;56.53
56719;BME280;42597;40.636;0.278;2023-03-23T06:54:51;97068.25;;;17.66;57.92
56719;BME280;42597;40.636;0.278;2023-03-23T06:57:17;97077.66;;;17.22;59.74
56719;BME280;42597;40.636;0.278;2023-03-23T06:59:44;97089.31;;;17.73;57.10
56719;BME280;42597;40.636;0.278;2023-03-23T07:02:13;97089.69;;;17.86;56.40
56719;BME280;42597;40.636;0.278;2023-03-23T07:04:40;97089.28;;;17.91;56.41
56719;BME280;42597;40.636;0.278;2023-03-23T07:07:08;97090.06;;;17.91;55.73
56719;BME280;42597;40.636;0.278;2023-03-23T07:09:34;97083.03;;;17.94;55.35
56719;BME280;42597;40.636;0.278;2023-03-23T07:12:00;97093.19;;;17.93;56.06
56719;BME280;42597;40.636;0.278;2023-03-23T07:14:26;97092.38;;;17.93;56.31
56719;BME280;42597;40.636;0.278;2023-03-23T07:16:52;97090.84;;;17.92;56.46
56719;BME280;42597;40.636;0.278;2023-03-23T07:19:18;97097.28;;;16.09;67.63
56719;BME280;42597;40.636;0.278;2023-03-23T07:21:44;97104.81;;;14.38;80.23
56719;BME280;42597;40.636;0.278;2023-03-23T07:24:11;97100.06;;;13.67;87.37
56719;BME280;42597;40.636;0.278;2023-03-23T07:26:40;97104.13;;;13.27;92.76
56719;BME280;42597;40.636;0.278;2023-03-23T07:29:07;97102.81;;;15.57;75.28
56719;BME280;42597;40.636;0.278;2023-03-23T07:31:32;97110.75;;;14.80;81.22
56719;BME280;42597;40.636;0.278;2023-03-23T07:33:58;97116.25;;;12.68;97.56
56719;BME280;42597;40.636;0.278;2023-03-23T07:36:23;97122.31;;;13.04;96.29
56719;BME280;42597;40.636;0.278;2023-03-23T07:38:49;97117.38;;;13.32;94.12
56719;BME280;42597;40.636;0.278;2023-03-23T07:41:15;97121.81;;;13.21;94.75
56719;BME280;42597;40.636;0.278;2023-03-23T07:43:40;97127.00;;;13.07;96.37
56719;BME280;42597;40.636;0.278;2023-03-23T07:46:06;97137.03;;;13.03;98.05
56719;BME280;42597;40.636;0.278;2023-03-23T07:48:32;97135.06;;;12.80;99.52
56719;BME280;42597;40.636;0.278;2023-03-23T07:50:59;97137.97;;;12.91;99.69
56719;BME280;42597;40.636;0.278;2023-03-23T07:53:24;97143.09;;;12.96;100.00
56719;BME280;42597;40.636;0.278;2023-03-23T07:55:50;97133.97;;;13.27;97.21
56719;BME280;42597;40.636;0.278;2023-03-23T07:58:16;97132.59;;;13.18;98.03
56719;BME280;42597;40.636;0.278;2023-03-23T08:00:45;97133.06;;;13.43;96.17
56719;BME280;42597;40.636;0.278;2023-03-23T08:03:11;97138.97;;;13.25;98.02
56719;BME280;42597;40.636;0.278;2023-03-23T08:05:37;97138.47;;;13.20;99.13
56719;BME280;42597;40.636;0.278;2023-03-23T08:08:04;97134.59;;;13.44;99.14
56719;BME280;42597;40.636;0.278;2023-03-23T08:10:30;97141.41;;;13.34;99.48
56719;BME280;42597;40.636;0.278;2023-03-23T08:12:56;97147.03;;;13.45;98.95
56719;BME280;42597;40.636;0.278;2023-03-23T08:15:22;97143.56;;;13.74;97.35
56719;BME280;42597;40.636;0.278;2023-03-23T08:17:49;97140.66;;;13.87;97.35
56719;BME280;42597;40.636;0.278;2023-03-23T08:20:16;97147.25;;;13.59;97.44
56719;BME280;42597;40.636;0.278;2023-03-23T08:22:48;97155.19;;;13.71;97.28
56719;BME280;42597;40.636;0.278;2023-03-23T08:25:14;97151.00;;;14.04;96.61
56719;BME280;42597;40.636;0.278;2023-03-23T08:27:42;97150.94;;;14.00;94.90
56719;BME280;42597;40.636;0.278;2023-03-23T08:30:13;97158.41;;;14.07;95.04
56719;BME280;42597;40.636;0.278;2023-03-23T08:32:40;97162.56;;;15.36;82.22
56719;BME280;42597;40.636;0.278;2023-03-23T08:35:07;97160.19;;;16.62;72.08
56719;BME280;42597;40.636;0.278;2023-03-23T08:37:35;97148.25;;;17.06;68.54
56719;BME280;42597;40.636;0.278;2023-03-23T08:40:01;97158.03;;;17.21;67.33
56719;BME280;42597;40.636;0.278;2023-03-23T08:42:32;97160.59;;;16.71;70.59
56719;BME280;42597;40.636;0.278;2023-03-23T08:44:58;97158.81;;;17.33;66.42
56719;BME280;42597;40.636;0.278;2023-03-23T08:47:24;97157.25;;;17.35;66.02
56719;BME280;42597;40.636;0.278;2023-03-23T08:49:52;97148.66;;;17.62;64.46
56719;BME280;42597;40.636;0.278;2023-03-23T08:52:19;97150.22;;;17.73;63.71
56719;BME280;42597;40.636;0.278;2023-03-23T08:54:45;97154.31;;;15.76;77.05
56719;BME280;42597;40.636;0.278;2023-03-23T08:57:13;97149.81;;;15.50;76.60
56719;BME280;42597;40.636;0.278;2023-03-23T08:59:40;97159.13;;;15.46;76.03
56719;BME280;42597;40.636;0.278;2023-03-23T09:02:08;97160.75;;;15.54;74.68
56719;BME280;42597;40.636;0.278;2023-03-23T09:04:34;97164.69;;;16.19;70.35
56719;BME280;42597;40.636;0.278;2023-03-23T09:07:00;97162.66;;;15.50;71.31
56719;BME280;42597;40.636;0.278;2023-03-23T09:09:26;97157.84;;;15.33;76.89
56719;BME280;42597;40.636;0.278;2023-03-23T09:11:53;97166.34;;;15.27;75.71
56719;BME280;42597;40.636;0.278;2023-03-23T09:14:19;97169.84;;;15.24;73.28
56719;BME280;42597;40.636;0.278;2023-03-23T09:16:44;97169.41;;;15.22;72.26
56719;BME280;42597;40.636;0.278;2023-03-23T09:19:10;97178.00;;;15.24;73.22
56719;BME280;42597;40.636;0.278;2023-03-23T09:21:37;97177.50;;;15.56;72.77
56719;BME280;42597;40.636;0.278;2023-03-23T09:24:05;97178.31;;;15.60;74.77
56719;BME280;42597;40.636;0.278;2023-03-23T09:26:31;97175.06;;;15.47;77.94
56719;BME280;42597;40.636;0.278;2023-03-23T09:28:57;97174.28;;;15.47;77.86
56719;BME280;42597;40.636;0.278;2023-03-23T09:31:23;97178.28;;;15.57;77.66
56719;BME280;42597;40.636;0.278;2023-03-23T09:33:53;97182.69;;;15.68;76.80
56719;BME280;42597;40.636;0.278;2023-03-23T09:36:21;97179.19;;;15.71;76.51
56719;BME280;42597;40.636;0.278;2023-03-23T09:38:47;97180.47;;;15.88;76.49
56719;BME280;42597;40.636;0.278;2023-03-23T09:50:11;97185.66;;;16.11;76.12
56719;BME280;42597;40.636;0.278;2023-03-23T09:55:17;97186.53;;;16.26;75.26
56719;BME280;42597;40.636;0.278;2023-03-23T10:00:50;97186.59;;;16.37;76.82
56719;BME280;42597;40.636;0.278;2023-03-23T10:03:20;97185.00;;;16.36;77.02
56719;BME280;42597;40.636;0.278;2023-03-23T10:05:51;97180.28;;;16.22;76.13
56719;BME280;42597;40.636;0.278;2023-03-23T10:13:20;97177.97;;;16.31;75.21
56719;BME280;42597;40.636;0.278;2023-03-23T10:15:49;97170.34;;;16.65;74.04
56719;BME280;42597;40.636;0.278;2023-03-23T10:21:03;97174.31;;;16.82;72.38
56719;BME280;42597;40.636;0.278;2023-03-23T10:29:04;97166.53;;;16.95;72.20
56719;BME280;42597;40.636;0.278;2023-03-23T10:31:41;97154.88;;;17.19;71.08
56719;BME280;42597;40.636;0.278;2023-03-23T10:34:23;97156.06;;;17.18;70.49
56719;BME280;42597;40.636;0.278;2023-03-23T10:37:02;97154.88;;;17.19;68.84
56719;BME280;42597;40.636;0.278;2023-03-23T10:39:31;97153.34;;;17.33;68.45
56719;BME280;42597;40.636;0.278;2023-03-23T10:42:01;97152.53;;;17.28;68.08
56719;BME280;42597;40.636;0.278;2023-03-23T10:44:32;97154.13;;;17.51;68.19
56719;BME280;42597;40.636;0.278;2023-03-23T10:47:03;97147.84;;;17.68;66.11
56719;BME280;42597;40.636;0.278;2023-03-23T10:57:36;97157.25;;;17.82;65.70
56719;BME280;42597;40.636;0.278;2023-03-23T11:03:03;97147.88;;;17.97;65.75
56719;BME280;42597;40.636;0.278;2023-03-23T11:05:40;97149.44;;;17.91;67.05
56719;BME280;42597;40.636;0.278;2023-03-23T11:08:12;97146.25;;;18.07;67.49
56719;BME280;42597;40.636;0.278;2023-03-23T11:10:49;97147.81;;;18.04;66.45
56719;BME280;42597;40.636;0.278;2023-03-23T11:13:16;97143.94;;;18.05;67.45
56719;BME280;42597;40.636;0.278;2023-03-23T11:15:44;97140.72;;;18.24;67.21
56719;BME280;42597;40.636;0.278;2023-03-23T11:18:18;97140.72;;;18.24;67.92
56719;BME280;42597;40.636;0.278;2023-03-23T11:20:46;97146.25;;;18.10;67.57
56719;BME280;42597;40.636;0.278;2023-03-23T11:26:02;97135.25;;;18.28;66.91
56719;BME280;42597;40.636;0.278;2023-03-23T11:28:32;97132.47;;;18.39;65.22
56719;BME280;42597;40.636;0.278;2023-03-23T11:31:01;97128.97;;;18.35;66.86
56719;BME280;42597;40.636;0.278;2023-03-23T11:33:54;97129.72;;;18.46;66.04
56719;BME280;42597;40.636;0.278;2023-03-23T11:36:28;97126.09;;;18.70;68.29
56719;BME280;42597;40.636;0.278;2023-03-23T11:38:55;97124.56;;;18.62;67.37
56719;BME280;42597;40.636;0.278;2023-03-23T11:41:23;97115.50;;;18.69;66.45
56719;BME280;42597;40.636;0.278;2023-03-23T11:43:52;97115.56;;;18.62;66.30
56719;BME280;42597;40.636;0.278;2023-03-23T11:49:10;97119.41;;;18.79;65.28
56719;BME280;42597;40.636;0.278;2023-03-23T11:51:42;97106.94;;;18.70;65.16
56719;BME280;42597;40.636;0.278;2023-03-23T11:56:40;97114.75;;;18.76;65.52
56719;BME280;42597;40.636;0.278;2023-03-23T11:59:33;97108.44;;;18.86;63.49
56719;BME280;42597;40.636;0.278;2023-03-23T12:07:54;97111.50;;;18.95;66.23
56719;BME280;42597;40.636;0.278;2023-03-23T12:26:56;97090.50;;;18.74;72.39
56719;BME280;42597;40.636;0.278;2023-03-23T12:32:23;97095.31;;;18.45;74.77
56719;BME280;42597;40.636;0.278;2023-03-23T12:35:05;97091.50;;;18.24;75.21
56719;BME280;42597;40.636;0.278;2023-03-23T12:43:39;97086.28;;;18.55;73.61
56719;BME280;42597;40.636;0.278;2023-03-23T12:48:43;97069.91;;;19.11;62.62
56719;BME280;42597;40.636;0.278;2023-03-23T12:54:03;97072.50;;;18.73;73.51
56719;BME280;42597;40.636;0.278;2023-03-23T12:59:25;97073.97;;;18.88;71.72
56719;BME280;42597;40.636;0.278;2023-03-23T13:04:44;97063.22;;;18.56;73.03
56719;BME280;42597;40.636;0.278;2023-03-23T13:07:17;97057.31;;;18.61;73.19
56719;BME280;42597;40.636;0.278;2023-03-23T13:12:14;97052.19;;;18.78;70.91
56719;BME280;42597;40.636;0.278;2023-03-23T13:14:43;97048.97;;;18.86;69.85
56719;BME280;42597;40.636;0.278;2023-03-23T13:22:39;97046.44;;;18.54;73.52
56719;BME280;42597;40.636;0.278;2023-03-23T13:25:15;97035.31;;;18.83;70.77
56719;BME280;42597;40.636;0.278;2023-03-23T13:27:43;97033.84;;;18.71;72.36
56719;BME280;42597;40.636;0.278;2023-03-23T13:30:20;97032.03;;;18.43;74.18
56719;BME280;42597;40.636;0.278;2023-03-23T13:32:50;97026.34;;;18.79;72.62
56719;BME280;42597;40.636;0.278;2023-03-23T13:35:18;97024.25;;;18.97;69.96
56719;BME280;42597;40.636;0.278;2023-03-23T13:37:49;97023.34;;;18.59;72.32
56719;BME280;42597;40.636;0.278;2023-03-23T13:40:28;97027.75;;;18.42;73.12
56719;BME280;42597;40.636;0.278;2023-03-23T13:42:57;97015.44;;;18.71;71.96
56719;BME280;42597;40.636;0.278;2023-03-23T13:48:17;97002.16;;;18.73;71.97
56719;BME280;42597;40.636;0.278;2023-03-23T13:50:57;96993.59;;;18.61;70.80
56719;BME280;42597;40.636;0.278;2023-03-23T13:53:27;96993.47;;;18.82;69.83
56719;BME280;42597;40.636;0.278;2023-03-23T13:58:46;97001.75;;;18.68;70.42
56719;BME280;42597;40.636;0.278;2023-03-23T14:01:16;96991.81;;;18.92;69.88
56719;BME280;42597;40.636;0.278;2023-03-23T14:03:46;96984.34;;;18.96;69.87
56719;BME280;42597;40.636;0.278;2023-03-23T14:06:19;96987.06;;;18.99;71.00
56719;BME280;42597;40.636;0.278;2023-03-23T14:08:50;96987.78;;;19.07;68.37
56719;BME280;42597;40.636;0.278;2023-03-23T14:11:24;96983.84;;;19.08;69.26
56719;BME280;42597;40.636;0.278;2023-03-23T14:16:37;96983.03;;;19.15;69.47
56719;BME280;42597;40.636;0.278;2023-03-23T14:19:13;96974.38;;;19.16;69.73
56719;BME280;42597;40.636;0.278;2023-03-23T14:21:41;96976.06;;;19.07;69.83
56719;BME280;42597;40.636;0.278;2023-03-23T14:24:11;96976.78;;;19.14;70.46
56719;BME280;42597;40.636;0.278;2023-03-23T14:26:38;96975.28;;;19.06;70.93
56719;BME280;42597;40.636;0.278;2023-03-23T14:29:05;96976.03;;;19.10;71.19
56719;BME280;42597;40.636;0.278;2023-03-23T14:31:31;96968.97;;;19.09;70.87
56719;BME280;42597;40.636;0.278;2023-03-23T14:34:04;96977.53;;;18.70;72.90
56719;BME280;42597;40.636;0.278;2023-03-23T14:36:36;96969.44;;;19.01;71.61
56719;BME280;42597;40.636;0.278;2023-03-23T14:39:07;96980.31;;;19.11;71.79
56719;BME280;42597;40.636;0.278;2023-03-23T14:41:38;96970.13;;;18.63;73.30
56719;BME280;42597;40.636;0.278;2023-03-23T14:44:08;96975.41;;;18.92;72.28
56719;BME280;42597;40.636;0.278;2023-03-23T14:46:35;96971.69;;;18.61;73.49
56719;BME280;42597;40.636;0.278;2023-03-23T14:49:03;96969.97;;;18.85;73.00
56719;BME280;42597;40.636;0.278;2023-03-23T14:51:29;96971.72;;;18.57;74.71
56719;BME280;42597;40.636;0.278;2023-03-23T14:53:58;96966.19;;;18.71;73.84
56719;BME280;42597;40.636;0.278;2023-03-23T14:56:33;96964.50;;;18.85;72.42
56719;BME280;42597;40.636;0.278;2023-03-23T14:59:04;96957.97;;;18.71;73.84
56719;BME280;42597;40.636;0.278;2023-03-23T15:01:32;96954.28;;;18.89;72.99
56719;BME280;42597;40.636;0.278;2023-03-23T15:04:01;96952.53;;;19.09;72.29
56719;BME280;42597;40.636;0.278;2023-03-23T15:06:30;96962.81;;;19.73;68.25
56719;BME280;42597;40.636;0.278;2023-03-23T15:08:59;96962.75;;;19.05;72.00
56719;BME280;42597;40.636;0.278;2023-03-23T15:11:30;96954.22;;;18.99;73.06
56719;BME280;42597;40.636;0.278;2023-03-23T15:13:59;96962.84;;;18.98;73.19
56719;BME280;42597;40.636;0.278;2023-03-23T15:16:32;96954.19;;;19.03;73.05
56719;BME280;42597;40.636;0.278;2023-03-23T15:19:11;96958.19;;;19.33;71.51
56719;BME280;42597;40.636;0.278;2023-03-23T15:21:55;96956.00;;;18.72;75.05